Time;durP1;ratioP1;P1;durP2;ratioP2;P2;SDS_P1;SDS_P2;PMS_P1;PMS_P2;Temp;Humidity;BMP_temperature;BMP_pressure;BME280_temperature;BME280_humidity;BME280_pressure;Samples;Min_cycle;Max_cycle;Signal;HPM_P1;HPM_P2
2021/06/02 00:01:06;;;;;;;0.65;0.65;;;;;;;20.17;51.00;101622.72;5068692;28;20061;-87
2021/06/02 00:03:36;;;;;;;0.70;0.57;;;;;;;20.11;50.82;101623.88;5053932;28;20025;-86
2021/06/02 00:06:03;;;;;;;0.00;0.00;;;;;;;20.08;50.86;101625.84;5067316;28;20029;-87
2021/06/02 00:08:32;;;;;;;0.00;0.00;;;;;;;20.07;50.74;101622.28;5061779;28;20035;-86
2021/06/02 00:10:59;;;;;;;0.10;0.10;;;;;;;20.05;51.01;101618.81;5062597;28;20033;-87
2021/06/02 00:13:26;;;;;;;0.10;0.10;;;;;;;20.03;50.71;101616.16;5054916;28;20075;-86
2021/06/02 00:15:53;;;;;;;0.40;0.40;;;;;;;20.03;50.16;101620.69;5061570;28;20629;-87
2021/06/02 00:18:19;;;;;;;0.05;0.05;;;;;;;20.00;50.21;101620.81;5061856;28;20029;-86
2021/06/02 00:20:46;;;;;;;0.30;0.20;;;;;;;19.97;50.37;101624.53;5065745;28;20052;-87
2021/06/02 00:23:13;;;;;;;0.10;0.10;;;;;;;19.93;50.49;101624.75;5066671;28;20124;-87
2021/06/02 00:25:39;;;;;;;0.10;0.10;;;;;;;19.92;49.81;101617.63;5065573;28;20425;-86
2021/06/02 00:28:06;;;;;;;0.00;0.00;;;;;;;19.90;49.99;101625.78;5062571;28;20032;-88
2021/06/02 00:30:33;;;;;;;0.00;0.00;;;;;;;19.88;49.50;101623.13;5062131;28;20037;-87
2021/06/02 00:33:00;;;;;;;0.22;0.22;;;;;;;19.92;48.94;101618.50;5065716;28;20040;-86
2021/06/02 00:35:27;;;;;;;0.10;0.10;;;;;;;19.94;49.00;101621.09;5059972;28;20022;-87
2021/06/02 00:37:54;;;;;;;0.00;0.00;;;;;;;19.92;48.73;101613.09;5068355;28;20083;-86
2021/06/02 00:40:38;;;;;;;0.00;0.00;;;;;;;19.93;49.20;101617.56;5066992;28;20368;-87
2021/06/02 00:43:05;;;;;;;0.00;0.00;;;;;;;19.90;49.30;101619.50;5052269;28;20018;-87
2021/06/02 00:45:33;;;;;;;0.00;0.00;;;;;;;19.87;50.12;101620.53;5052189;28;20036;-87
2021/06/02 00:48:02;;;;;;;0.00;0.00;;;;;;;19.85;49.86;101617.03;5057073;28;20049;-87
2021/06/02 00:50:30;;;;;;;0.00;0.00;;;;;;;19.83;49.41;101618.94;5057510;28;20049;-87
2021/06/02 00:52:56;;;;;;;0.00;0.00;;;;;;;19.80;49.58;101614.53;5063882;28;20044;-87
2021/06/02 00:55:23;;;;;;;0.10;0.10;;;;;;;19.79;49.65;101617.28;5057267;28;20573;-87
2021/06/02 00:57:55;;;;;;;0.00;0.00;;;;;;;19.77;50.02;101617.34;5055507;28;20375;-87
2021/06/02 01:00:23;;;;;;;0.10;0.10;;;;;;;19.72;50.41;101617.56;5067708;28;20043;-87
2021/06/02 01:02:53;;;;;;;0.00;0.00;;;;;;;19.69;50.56;101606.97;5044845;28;20487;-87
2021/06/02 01:05:22;;;;;;;0.88;0.73;;;;;;;19.66;50.23;101612.47;5045075;28;20071;-87
2021/06/02 01:07:51;;;;;;;0.10;0.10;;;;;;;19.63;50.55;101601.88;5047248;28;20028;-87
2021/06/02 01:10:19;;;;;;;0.10;0.10;;;;;;;19.61;50.42;101603.75;5035361;28;20032;-87
2021/06/02 01:12:49;;;;;;;0.00;0.00;;;;;;;19.59;49.66;101611.03;5046583;28;20112;-87
2021/06/02 01:15:18;;;;;;;0.03;0.03;;;;;;;19.54;50.45;101605.00;5046153;28;20032;-87
2021/06/02 01:17:46;;;;;;;0.10;0.10;;;;;;;19.50;50.32;101608.75;5047837;28;20021;-87
2021/06/02 01:20:13;;;;;;;0.10;0.10;;;;;;;19.50;50.21;101606.94;5036095;28;20037;-86
2021/06/02 01:22:40;;;;;;;0.82;0.82;;;;;;;19.47;50.31;101606.22;5042715;28;20079;-87
2021/06/02 01:25:13;;;;;;;0.10;0.10;;;;;;;19.49;50.22;101599.81;5046701;28;20025;-87
2021/06/02 01:27:40;;;;;;;0.10;0.10;;;;;;;19.47;49.87;101600.84;5045553;28;20456;-87
2021/06/02 01:30:11;;;;;;;0.00;0.00;;;;;;;19.46;50.44;101599.94;5037414;28;20083;-86
2021/06/02 01:38:36;;;;;;;0.00;0.00;;;;;;;19.42;50.29;101609.09;5074453;27;20445;-86
2021/06/02 01:47:16;;;;;;;0.10;0.10;;;;;;;19.36;51.04;101604.84;5079446;28;20406;-86
2021/06/02 01:50:00;;;;;;;0.20;0.20;;;;;;;19.35;50.73;101608.50;5053568;28;20033;-87
2021/06/02 01:55:40;;;;;;;1.10;0.75;;;;;;;19.32;50.55;101600.56;5119123;27;20407;-87
2021/06/02 01:58:33;;;;;;;0.10;0.10;;;;;;;19.29;51.05;101603.41;5112427;28;20085;-87
2021/06/02 02:04:36;;;;;;;0.10;0.10;;;;;;;19.23;51.30;101603.69;5066268;28;20409;-87
2021/06/02 02:13:02;;;;;;;0.10;0.10;;;;;;;19.13;52.26;101605.91;5171963;27;20419;-86
2021/06/02 02:16:00;;;;;;;0.10;0.10;;;;;;;19.11;52.19;101599.72;5144912;27;20031;-86
2021/06/02 02:19:06;;;;;;;0.00;0.00;;;;;;;19.11;52.24;101594.34;5151073;27;20064;-85
2021/06/02 02:30:07;;;;;;;0.03;0.03;;;;;;;18.98;53.54;101594.00;5069511;27;20398;-87
2021/06/02 02:33:14;;;;;;;0.05;0.05;;;;;;;18.96;53.24;101595.88;5069407;28;20040;-87
2021/06/02 02:35:58;;;;;;;0.10;0.10;;;;;;;18.92;53.18;101588.91;5047522;28;20029;-88
2021/06/02 02:38:51;;;;;;;0.20;0.20;;;;;;;18.86;53.55;101590.00;5053151;28;20032;-87
2021/06/02 02:41:57;;;;;;;0.32;0.32;;;;;;;18.88;53.01;101582.75;5068924;28;20128;-88
2021/06/02 02:47:40;;;;;;;3.53;1.17;;;;;;;18.83;52.87;101578.50;5073319;27;20823;-85
2021/06/02 02:50:45;;;;;;;0.00;0.00;;;;;;;18.79;54.81;101587.66;5057479;28;20048;-86
2021/06/02 02:59:41;;;;;;;0.35;0.35;;;;;;;18.74;54.57;101588.72;5083094;27;20435;-87
2021/06/02 03:02:33;;;;;;;0.00;0.00;;;;;;;18.66;54.46;101582.78;5059290;28;20028;-87
2021/06/02 03:05:03;;;;;;;0.10;0.10;;;;;;;18.60;54.82;101577.69;5054610;28;20068;-87
2021/06/02 03:07:35;;;;;;;0.10;0.10;;;;;;;18.61;54.91;101568.69;5055044;28;20123;-87
2021/06/02 03:10:08;;;;;;;0.63;0.63;;;;;;;18.60;55.05;101577.69;5066717;28;20053;-87
2021/06/02 03:18:48;;;;;;;0.10;0.10;;;;;;;18.58;55.32;101574.22;5073322;27;20410;-86
2021/06/02 03:24:38;;;;;;;0.10;0.10;;;;;;;18.59;54.93;101575.94;5077841;27;21059;-87
2021/06/02 03:27:09;;;;;;;1.45;0.90;;;;;;;18.51;55.79;101573.59;5060176;28;20048;-86
2021/06/02 03:30:07;;;;;;;0.10;0.10;;;;;;;18.55;55.54;101568.97;5068446;28;20095;-87
2021/06/02 03:33:15;;;;;;;0.03;0.03;;;;;;;18.58;55.37;101574.22;5067190;28;20059;-86
2021/06/02 03:39:07;;;;;;;0.55;0.55;;;;;;;18.54;54.98;101572.56;5080279;27;20427;-84
2021/06/02 03:45:14;;;;;;;0.10;0.10;;;;;;;18.49;56.16;101569.22;5069308;27;20428;-87
2021/06/02 03:47:58;;;;;;;0.45;0.45;;;;;;;18.46;55.86;101580.09;5049690;28;20041;-86
2021/06/02 03:50:30;;;;;;;1.75;0.95;;;;;;;18.42;55.88;101579.34;5057104;28;20123;-87
2021/06/02 04:01:52;;;;;;;0.10;0.10;;;;;;;18.47;55.68;101565.72;5086159;27;20407;-86
2021/06/02 04:10:06;;;;;;;0.10;0.10;;;;;;;18.55;55.92;101559.09;5116549;27;20387;-87
2021/06/02 04:15:48;;;;;;;0.20;0.20;;;;;;;18.56;55.75;101568.88;5058975;28;20405;-87
2021/06/02 04:18:20;;;;;;;0.43;0.43;;;;;;;18.56;55.38;101574.25;5051820;28;20048;-86
2021/06/02 04:20:46;;;;;;;;;;;;;;;18.67;55.77;101584.56;5062886;28;20021;-87
2021/06/02 04:23:15;;;;;;;0.00;0.00;;;;;;;18.56;55.68;101582.31;5056035;28;19924;-87
2021/06/02 04:25:44;;;;;;;0.05;0.05;;;;;;;18.55;55.77;101582.38;5087402;22;20049;-87
2021/06/02 04:28:12;;;;;;;0.10;0.10;;;;;;;18.54;56.09;101577.94;5069569;28;20056;-86
2021/06/02 04:30:47;;;;;;;0.10;0.10;;;;;;;18.50;56.47;101570.97;5069073;28;20535;-87
2021/06/02 04:33:17;;;;;;;0.03;0.03;;;;;;;18.56;56.41;101581.44;5068312;28;20083;-87
2021/06/02 04:35:50;;;;;;;0.30;0.30;;;;;;;18.59;56.10;101587.56;5079313;28;20039;-82
2021/06/02 04:38:19;;;;;;;0.60;0.60;;;;;;;18.60;56.20;101583.06;5088986;28;20036;-87
2021/06/02 04:40:46;;;;;;;0.50;0.50;;;;;;;18.60;56.67;101572.31;5088192;28;20058;-85
2021/06/02 04:43:13;;;;;;;0.95;0.57;;;;;;;18.62;56.32;101586.56;5086625;28;20013;-86
2021/06/02 04:45:53;;;;;;;0.10;0.10;;;;;;;18.69;56.46;101582.69;5075345;28;20021;-86
2021/06/02 04:48:19;;;;;;;0.20;0.20;;;;;;;18.69;55.64;101582.69;5088508;28;20107;-86
2021/06/02 04:51:01;;;;;;;0.10;0.10;;;;;;;18.70;56.98;101564.75;5088969;28;20037;-87
2021/06/02 04:56:40;;;;;;;0.10;0.10;;;;;;;18.84;56.48;101577.59;5079613;28;20475;-85
2021/06/02 05:05:33;;;;;;;0.10;0.10;;;;;;;19.00;56.00;101585.88;5062786;27;20965;-84
2021/06/02 05:08:31;;;;;;;0.03;0.03;;;;;;;19.13;56.35;101580.84;5044974;28;20052;-85
2021/06/02 05:14:12;;;;;;;1.67;0.30;;;;;;;19.24;55.99;101584.81;5070885;27;20464;-87
2021/06/02 05:17:02;;;;;;;0.00;0.00;;;;;;;19.24;55.91;101581.25;5059202;28;20032;-85
2021/06/02 05:20:01;;;;;;;0.10;0.10;;;;;;;19.34;55.87;101589.75;5053059;28;20036;-84
2021/06/02 05:23:07;;;;;;;0.05;0.05;;;;;;;19.41;55.74;101588.53;5053775;28;20452;-86
2021/06/02 05:28:53;;;;;;;0.25;0.25;;;;;;;19.51;55.68;101589.84;5066985;27;21000;-88
2021/06/02 05:38:05;;;;;;;0.30;0.30;;;;;;;19.75;55.68;101594.19;5055137;28;20420;-84
2021/06/02 05:40:48;;;;;;;1.77;0.75;;;;;;;19.78;56.09;101588.66;5056112;28;20048;-85
2021/06/02 05:46:48;;;;;;;0.50;0.50;;;;;;;19.98;55.23;101585.06;5064270;27;20417;-83
2021/06/02 05:55:53;;;;;;;0.03;0.03;;;;;;;20.08;55.68;101585.50;5102413;22;20212;-84
2021/06/02 06:05:24;;;;;;;0.10;0.10;;;;;;;20.28;55.40;101589.91;5076870;28;20413;-88
2021/06/02 06:08:21;;;;;;;0.00;0.00;;;;;;;20.30;55.79;101579.91;5033680;28;20463;-87
2021/06/02 06:11:26;;;;;;;0.30;0.30;;;;;;;20.44;55.13;101582.81;5034895;28;20044;-87
2021/06/02 06:14:23;;;;;;;0.10;0.10;;;;;;;20.43;55.48;101577.50;5026713;28;20026;-85
2021/06/02 06:20:15;;;;;;;0.10;0.10;;;;;;;20.46;54.71;101578.22;5072607;27;20406;-86
2021/06/02 06:25:39;;;;;;;0.10;0.10;;;;;;;20.64;54.63;101564.78;5085348;27;20409;-85
2021/06/02 06:30:50;;;;;;;0.00;0.00;;;;;;;20.69;55.13;101560.91;5075461;27;20390;-86
2021/06/02 06:33:21;;;;;;;0.10;0.10;;;;;;;20.80;54.52;101562.22;5071542;28;20086;-86
2021/06/02 06:35:49;;;;;;;0.17;0.17;;;;;;;20.89;53.98;101561.72;5038575;28;20400;-86
2021/06/02 06:38:22;;;;;;;0.00;0.00;;;;;;;20.98;54.00;101565.75;5034148;28;20035;-86
2021/06/02 06:40:52;;;;;;;0.08;0.08;;;;;;;21.04;54.00;101562.75;5044039;28;20044;-87
2021/06/02 06:43:29;;;;;;;0.28;0.28;;;;;;;21.11;54.52;101563.28;5048565;28;20057;-85
2021/06/02 06:45:58;;;;;;;0.55;0.55;;;;;;;21.18;54.17;101564.69;5051494;28;20057;-83
2021/06/02 06:48:27;;;;;;;0.25;0.25;;;;;;;21.23;54.29;101562.63;5054435;28;20056;-84
2021/06/02 06:50:55;;;;;;;0.10;0.10;;;;;;;21.32;53.71;101559.44;5055370;28;20044;-84
2021/06/02 06:53:23;;;;;;;0.00;0.00;;;;;;;21.43;53.50;101564.28;5050564;28;20033;-84
2021/06/02 06:55:52;;;;;;;0.47;0.47;;;;;;;21.39;53.44;101559.97;5050972;28;20055;-83
2021/06/02 06:58:19;;;;;;;0.15;0.15;;;;;;;21.56;53.26;101560.91;5047771;28;20025;-85
2021/06/02 07:00:45;;;;;;;0.10;0.10;;;;;;;21.56;52.75;101560.91;5048930;28;20025;-86
2021/06/02 07:03:15;;;;;;;2.83;0.63;;;;;;;21.71;52.36;101554.69;5053383;28;20037;-86
2021/06/02 07:05:43;;;;;;;2.08;1.08;;;;;;;21.75;52.47;101550.00;5047698;28;20030;-85
2021/06/02 07:08:11;;;;;;;0.63;0.30;;;;;;;21.85;52.17;101555.75;5053633;28;20025;-85
2021/06/02 07:10:38;;;;;;;0.38;0.38;;;;;;;21.96;51.93;101553.31;5049324;28;20144;-85
2021/06/02 07:13:07;;;;;;;0.10;0.10;;;;;;;22.06;51.63;101553.66;5047219;28;20108;-86
2021/06/02 07:15:34;;;;;;;0.45;0.45;;;;;;;22.11;51.67;101554.25;5039838;28;20512;-86
2021/06/02 07:18:01;;;;;;;0.00;0.00;;;;;;;22.15;51.48;101558.50;5023281;28;20026;-84
2021/06/02 07:20:29;;;;;;;0.10;0.10;;;;;;;22.26;51.36;101558.75;5051356;28;20040;-84
2021/06/02 07:22:56;;;;;;;0.10;0.10;;;;;;;22.38;50.54;101559.03;5056671;28;20036;-84
2021/06/02 07:25:26;;;;;;;0.10;0.10;;;;;;;22.45;50.23;101553.19;5043383;28;20064;-85
2021/06/02 07:27:55;;;;;;;0.10;0.10;;;;;;;22.55;50.44;101556.19;5053340;28;20033;-85
2021/06/02 07:30:23;;;;;;;0.00;0.00;;;;;;;22.66;50.37;101558.28;5050175;28;20040;-86
2021/06/02 07:32:50;;;;;;;0.10;0.10;;;;;;;22.70;49.82;101558.97;5047782;28;20116;-86
2021/06/02 07:35:16;;;;;;;0.20;0.20;;;;;;;22.76;49.64;101559.44;5048202;28;20013;-84
2021/06/02 07:37:42;;;;;;;0.00;0.00;;;;;;;22.88;49.85;101554.25;5047918;28;20033;-85
2021/06/02 07:40:08;;;;;;;1.33;1.25;;;;;;;22.93;49.81;101560.28;5045100;28;20025;-85
2021/06/02 07:42:35;;;;;;;0.32;0.32;;;;;;;23.07;49.74;101549.47;5032592;28;20029;-82
2021/06/02 07:45:02;;;;;;;0.25;0.25;;;;;;;23.21;49.46;101551.34;5027873;28;20025;-83
2021/06/02 07:47:29;;;;;;;0.00;0.00;;;;;;;23.30;49.04;101551.75;5037928;28;20532;-83
2021/06/02 07:49:56;;;;;;;0.00;0.00;;;;;;;23.38;49.03;101553.00;5035561;28;20045;-84
2021/06/02 07:52:23;;;;;;;0.43;0.43;;;;;;;23.52;48.44;101562.94;5042813;28;20091;-84
2021/06/02 07:54:50;;;;;;;0.30;0.30;;;;;;;23.64;48.24;101560.41;5037869;28;20033;-85
2021/06/02 07:57:16;;;;;;;0.15;0.15;;;;;;;23.76;48.23;101548.81;5034102;28;20029;-84
2021/06/02 07:59:42;;;;;;;0.00;0.00;;;;;;;23.85;48.24;101553.63;5034573;28;20342;-84
2021/06/02 08:02:08;;;;;;;0.30;0.30;;;;;;;23.92;47.90;101542.44;5030926;28;20029;-83
2021/06/02 08:04:35;;;;;;;0.30;0.30;;;;;;;24.07;47.63;101549.53;5030324;28;20037;-82
2021/06/02 08:07:03;;;;;;;0.10;0.10;;;;;;;24.17;47.59;101541.69;5015549;28;20619;-83
2021/06/02 08:09:29;;;;;;;0.25;0.25;;;;;;;24.26;47.39;101546.47;5028648;28;21301;-83
2021/06/02 08:11:55;;;;;;;0.13;0.08;;;;;;;24.35;47.48;101550.41;5020518;28;20488;-84
2021/06/02 08:14:21;;;;;;;0.52;0.52;;;;;;;24.42;47.07;101535.47;5025920;28;20045;-84
2021/06/02 08:16:48;;;;;;;0.05;0.05;;;;;;;24.55;46.71;101539.09;5032267;28;20014;-85
2021/06/02 08:19:14;;;;;;;2.28;0.88;;;;;;;24.59;46.66;101547.03;5032268;28;20030;-84
2021/06/02 08:21:40;;;;;;;0.63;0.63;;;;;;;24.70;46.60;101545.34;5022165;28;20485;-85
2021/06/02 08:24:07;;;;;;;0.10;0.10;;;;;;;24.81;46.32;101541.91;5027993;28;20034;-88
2021/06/02 08:26:36;;;;;;;0.00;0.00;;;;;;;24.87;44.07;101546.00;5010706;28;20034;-85
2021/06/02 08:29:03;;;;;;;0.00;0.00;;;;;;;24.98;45.61;101545.25;5020945;28;20033;-83
2021/06/02 08:31:29;;;;;;;0.10;0.10;;;;;;;25.06;45.56;101545.59;5029744;28;20030;-83
2021/06/02 08:33:56;;;;;;;0.20;0.20;;;;;;;25.12;43.80;101547.88;5031926;28;20040;-83
2021/06/02 08:36:23;;;;;;;0.10;0.10;;;;;;;25.26;44.83;101546.91;5028396;28;20032;-87
2021/06/02 08:38:49;;;;;;;0.10;0.10;;;;;;;25.34;44.53;101544.47;5030958;28;20488;-87
2021/06/02 08:41:15;;;;;;;0.13;0.13;;;;;;;25.39;44.26;101541.47;5014183;28;20025;-87
2021/06/02 08:43:43;;;;;;;0.20;0.20;;;;;;;25.52;44.24;101549.59;5034072;28;20572;-87
2021/06/02 08:46:10;;;;;;;0.00;0.00;;;;;;;25.59;44.22;101541.91;5027865;28;20029;-87
2021/06/02 08:48:38;;;;;;;0.25;0.25;;;;;;;25.70;43.92;101555.53;5032049;28;20036;-87
2021/06/02 08:51:04;;;;;;;0.68;0.68;;;;;;;25.79;43.50;101554.84;5034511;28;20021;-85
2021/06/02 08:53:31;;;;;;;0.10;0.10;;;;;;;25.90;43.44;101545.06;5030483;28;20045;-87
2021/06/02 08:56:02;;;;;;;0.10;0.10;;;;;;;25.98;42.90;101539.91;5027061;28;20025;-86
2021/06/02 08:58:28;;;;;;;0.90;0.35;;;;;;;26.02;42.09;101546.00;5000989;28;20022;-86
2021/06/02 09:00:54;;;;;;;0.35;0.35;;;;;;;26.16;42.09;101540.44;5032260;28;20021;-85
2021/06/02 09:03:20;;;;;;;0.20;0.20;;;;;;;26.23;41.55;101540.84;5033430;28;20022;-86
2021/06/02 09:05:47;;;;;;;0.10;0.10;;;;;;;26.37;41.38;101537.94;5029726;28;20026;-85
2021/06/02 09:08:15;;;;;;;0.65;0.50;;;;;;;26.46;42.13;101542.66;5026616;28;20033;-85
2021/06/02 09:10:45;;;;;;;0.10;0.10;;;;;;;26.60;40.45;101549.75;5025702;28;20499;-85
2021/06/02 09:13:17;;;;;;;0.00;0.00;;;;;;;26.74;41.27;101551.47;5027260;28;20083;-86
2021/06/02 09:15:47;;;;;;;0.13;0.13;;;;;;;26.83;39.42;101548.97;5030607;28;20124;-85
2021/06/02 09:18:17;;;;;;;0.05;0.05;;;;;;;26.91;41.08;101547.41;5030411;28;20060;-85
2021/06/02 09:29:10;;;;;;;0.73;0.47;;;;;;;27.45;40.29;101539.56;5037009;28;20431;-81
2021/06/02 09:37:06;;;;;;;0.08;0.08;;;;;;;27.74;39.14;101545.38;5082948;27;20415;-84
2021/06/02 09:39:40;;;;;;;;;;;;;;;27.99;38.92;101543.34;5065455;28;20039;-83
2021/06/02 09:42:26;;;;;;;0.10;0.10;;;;;;;28.05;38.59;101544.69;5063757;28;19943;-82
2021/06/02 09:45:10;;;;;;;0.35;0.35;;;;;;;28.02;37.43;101543.06;5045400;28;20037;-82
2021/06/02 09:48:00;;;;;;;0.30;0.30;;;;;;;28.19;37.65;101549.88;5048121;28;20396;-83
2021/06/02 09:53:13;;;;;;;0.10;0.10;;;;;;;28.36;38.26;101534.81;5067939;28;20836;-84
2021/06/02 09:55:41;;;;;;;0.20;0.20;;;;;;;28.46;36.98;101539.47;5052523;28;20033;-83
2021/06/02 10:00:58;;;;;;;0.10;0.10;;;;;;;28.69;37.29;101535.66;5107828;27;20396;-83
2021/06/02 10:03:30;;;;;;;3.72;0.65;;;;;;;28.70;37.37;101531.94;5101340;28;20127;-84
2021/06/02 10:05:56;;;;;;;;;;;;;;;28.90;37.12;101532.09;5087859;28;20028;-83
2021/06/02 10:08:41;;;;;;;0.43;0.43;;;;;;;28.95;34.45;101524.34;5094882;28;19969;-83
2021/06/02 10:11:17;;;;;;;0.05;0.05;;;;;;;29.05;36.41;101529.88;5096947;28;20028;-83
2021/06/02 10:13:44;;;;;;;0.80;0.80;;;;;;;29.08;35.67;101528.75;5091469;28;20024;-83
2021/06/02 10:16:10;;;;;;;0.05;0.05;;;;;;;29.20;36.45;101522.19;5086573;28;20542;-83
2021/06/02 10:18:39;;;;;;;0.00;0.00;;;;;;;29.30;35.83;101522.28;5095883;28;20042;-83
2021/06/02 10:21:08;;;;;;;0.47;0.28;;;;;;;29.30;35.51;101520.41;5092173;28;20032;-83
2021/06/02 10:23:40;;;;;;;0.00;0.00;;;;;;;29.44;34.05;101523.75;5091518;28;20078;-83
2021/06/02 10:26:07;;;;;;;;;;;;;;;29.71;34.89;101517.66;5083365;28;20016;-83
2021/06/02 10:28:33;;;;;;;0.10;0.10;;;;;;;29.64;35.20;101520.06;5092000;28;19912;-83
2021/06/02 10:31:02;;;;;;;0.10;0.10;;;;;;;29.73;35.11;101512.91;5088358;28;20062;-83
2021/06/02 10:33:29;;;;;;;0.03;0.03;;;;;;;29.81;35.13;101515.81;5088275;28;20025;-82
2021/06/02 10:35:57;;;;;;;0.03;0.03;;;;;;;29.90;34.72;101503.22;5087488;28;20074;-83
2021/06/02 10:38:25;;;;;;;0.35;0.35;;;;;;;29.99;33.77;101516.00;5088301;28;20024;-84
2021/06/02 10:40:52;;;;;;;0.22;0.22;;;;;;;30.07;32.69;101517.16;5088673;28;20101;-84
2021/06/02 10:43:24;;;;;;;0.20;0.20;;;;;;;30.12;33.82;101507.53;5098272;28;20020;-87
2021/06/02 10:46:02;;;;;;;0.32;0.32;;;;;;;30.21;32.81;101507.69;5102662;28;20032;-88
2021/06/02 10:48:53;;;;;;;0.20;0.20;;;;;;;30.37;32.92;101507.09;5088114;28;20051;-86
2021/06/02 10:54:28;;;;;;;0.00;0.00;;;;;;;30.49;33.29;101504.13;5073520;27;20466;-87
2021/06/02 10:59:37;;;;;;;0.13;0.13;;;;;;;30.65;32.19;101492.56;5079721;27;20423;-88
2021/06/02 11:05:40;;;;;;;0.10;0.10;;;;;;;30.92;31.99;101501.84;5052253;28;20443;-91
2021/06/02 11:08:06;;;;;;;0.10;0.10;;;;;;;30.90;32.07;101501.13;4977633;28;20041;-91
2021/06/02 11:10:32;;;;;;;0.00;0.00;;;;;;;30.91;30.07;101491.06;5047829;28;20040;-89
2021/06/02 11:18:22;;;;;;;0.35;0.35;;;;;;;31.10;31.13;101496.50;5078668;28;20423;-89
2021/06/02 11:20:55;;;;;;;0.10;0.10;;;;;;;31.24;31.07;101486.94;5068562;28;20028;-92
2021/06/02 11:23:31;;;;;;;0.00;0.00;;;;;;;31.33;30.88;101495.25;5065713;28;20059;-90
2021/06/02 11:26:25;;;;;;;0.10;0.10;;;;;;;31.52;30.75;101494.31;5048151;28;20040;-90
2021/06/02 11:28:52;;;;;;;0.38;0.32;;;;;;;31.54;30.76;101500.47;5049141;28;20083;-89
2021/06/02 11:37:11;;;;;;;0.40;0.40;;;;;;;31.93;30.04;101495.63;5131347;27;20399;-87
2021/06/02 11:39:38;;;;;;;0.08;0.08;;;;;;;31.98;29.32;101491.56;5130096;27;20032;-86
2021/06/02 11:42:06;;;;;;;0.00;0.00;;;;;;;32.07;29.64;101487.88;5125439;27;20073;-86
2021/06/02 11:44:34;;;;;;;0.10;0.10;;;;;;;32.15;29.25;101487.97;5123337;27;20023;-86
2021/06/02 11:47:01;;;;;;;0.17;0.17;;;;;;;32.24;28.74;101484.31;5113511;28;20467;-88
2021/06/02 11:49:29;;;;;;;0.00;0.00;;;;;;;32.34;27.44;101470.50;5109424;28;20063;-89
2021/06/02 11:52:05;;;;;;;0.25;0.25;;;;;;;32.34;28.46;101478.75;5114144;28;20008;-87
2021/06/02 11:54:54;;;;;;;0.00;0.00;;;;;;;32.54;28.85;101478.56;5115045;22;20034;-88
2021/06/02 12:00:13;;;;;;;0.15;0.15;;;;;;;32.60;28.27;101477.91;5101231;27;20461;-91
2021/06/02 12:02:44;;;;;;;0.15;0.15;;;;;;;32.65;28.33;101475.53;5064259;28;20029;-90
2021/06/02 12:10:47;;;;;;;0.10;0.10;;;;;;;32.82;27.92;101476.53;5061785;28;20820;-88
2021/06/02 12:13:23;;;;;;;0.10;0.10;;;;;;;32.84;27.42;101471.75;5056046;28;20035;-90
2021/06/02 12:15:52;;;;;;;0.00;0.00;;;;;;;32.89;27.37;101474.84;5045651;28;20053;-91
2021/06/02 12:21:31;;;;;;;0.00;0.00;;;;;;;33.00;26.74;101481.09;5008463;27;1268861;-89
2021/06/02 12:24:04;;;;;;;0.00;0.00;;;;;;;33.02;26.49;101476.31;5026643;28;20140;-89
2021/06/02 12:29:16;;;;;;;0.00;0.00;;;;;;;33.14;26.72;101469.50;5106507;27;20406;-89
2021/06/02 12:34:27;;;;;;;0.00;0.00;;;;;;;33.31;26.80;101466.84;5066056;27;20431;-89
2021/06/02 12:36:58;;;;;;;0.43;0.43;;;;;;;33.34;26.40;101469.28;5041123;28;20126;-89
2021/06/02 12:39:28;;;;;;;0.65;0.65;;;;;;;33.42;26.39;101466.53;5036906;28;20037;-89
2021/06/02 12:41:56;;;;;;;0.15;0.15;;;;;;;33.47;26.71;101461.44;5034855;28;20033;-91
2021/06/02 12:47:10;;;;;;;0.00;0.00;;;;;;;33.68;26.13;101471.09;5069265;27;20422;-91
2021/06/02 12:49:42;;;;;;;0.00;0.00;;;;;;;33.76;25.69;101468.38;5050757;28;20038;-90
2021/06/02 12:52:08;;;;;;;0.00;0.00;;;;;;;33.79;24.96;101457.03;5034112;28;20459;-91
2021/06/02 12:54:37;;;;;;;0.22;0.13;;;;;;;33.83;25.57;101458.47;5036730;28;20020;-90
2021/06/02 12:57:04;;;;;;;0.10;0.10;;;;;;;33.82;25.25;101458.59;5033865;28;20030;-91
2021/06/02 12:59:32;;;;;;;0.00;0.00;;;;;;;33.91;24.72;101464.97;5034947;28;20053;-90
2021/06/02 13:02:01;;;;;;;0.10;0.10;;;;;;;33.98;25.80;101460.50;5032506;28;20018;-88
2021/06/02 13:04:28;;;;;;;0.20;0.20;;;;;;;34.07;24.73;101456.75;5042142;28;20025;-87
2021/06/02 13:06:56;;;;;;;0.40;0.40;;;;;;;33.99;23.43;101459.50;5050856;28;20029;-95
2021/06/02 13:09:23;;;;;;;0.20;0.20;;;;;;;34.02;24.71;101454.50;5053237;28;20026;-96
2021/06/02 13:11:51;;;;;;;1.02;0.40;;;;;;;34.17;24.93;101457.44;5049421;28;20025;-96
2021/06/02 13:14:18;;;;;;;0.38;0.38;;;;;;;34.18;24.75;101450.91;5044092;28;20042;-94
2021/06/02 13:17:01;;;;;;;0.00;0.00;;;;;;;34.29;24.18;101446.94;5037257;28;20072;-95
2021/06/02 13:19:38;;;;;;;0.25;0.22;;;;;;;34.39;24.57;101446.78;5023488;28;20029;-91
2021/06/02 13:22:05;;;;;;;0.73;0.73;;;;;;;34.32;24.54;101451.22;5053246;28;20038;-96
2021/06/02 13:24:40;;;;;;;0.65;0.32;;;;;;;34.35;23.64;101439.94;5047933;28;20026;-93
2021/06/02 13:27:16;;;;;;;0.00;0.00;;;;;;;34.49;24.02;101432.84;5050720;28;20030;-95
2021/06/02 13:30:06;;;;;;;0.00;0.00;;;;;;;34.60;24.47;101445.41;5051877;28;20029;-95
2021/06/02 13:32:32;;;;;;;0.00;0.00;;;;;;;34.58;24.51;101444.69;5052391;28;20029;-96
2021/06/02 13:37:57;;;;;;;0.85;0.85;;;;;;;34.67;23.54;101446.41;5092863;27;20407;-95
2021/06/02 13:40:30;;;;;;;0.00;0.00;;;;;;;34.79;22.96;101441.38;5092693;28;20437;-92
2021/06/02 13:43:18;;;;;;;0.00;0.00;;;;;;;34.80;22.90;101441.19;5074258;28;20383;-92
2021/06/02 13:57:14;;;;;;;0.10;0.10;;;;;;;35.03;23.16;101425.84;5060021;28;20436;-95
2021/06/02 13:59:49;;;;;;;0.08;0.08;;;;;;;35.07;23.34;101435.44;5051783;28;20064;-94
2021/06/02 14:02:21;;;;;;;2.17;0.25;;;;;;;35.22;22.80;101433.69;5048734;28;20025;-94
2021/06/02 14:04:47;;;;;;;;;;;;;;;35.55;21.76;101435.41;5051780;28;20047;-95
2021/06/02 14:07:16;;;;;;;0.08;0.08;;;;;;;35.44;21.01;101444.94;5022380;28;20432;-83
2021/06/02 14:09:43;;;;;;;0.00;0.00;;;;;;;35.53;19.55;101432.84;5017151;28;20022;-82
2021/06/02 14:12:10;;;;;;;0.10;0.10;;;;;;;35.67;21.58;101431.22;5023948;28;20104;-81
2021/06/02 14:14:37;;;;;;;0.10;0.10;;;;;;;35.71;21.67;101431.69;5023929;28;20141;-87
2021/06/02 14:17:04;;;;;;;0.10;0.10;;;;;;;35.79;21.39;101424.22;5021174;28;20117;-87
2021/06/02 14:19:31;;;;;;;1.73;0.45;;;;;;;35.86;20.73;101434.53;5026283;28;20038;-87
2021/06/02 14:21:58;;;;;;;0.00;0.00;;;;;;;35.91;20.61;101423.84;5018377;28;20084;-88
2021/06/02 14:24:27;;;;;;;0.00;0.00;;;;;;;35.86;19.81;101424.34;5027350;28;20064;-86
2021/06/02 14:26:53;;;;;;;0.03;0.03;;;;;;;36.06;19.96;101432.16;5024898;28;20121;-89
2021/06/02 14:29:21;;;;;;;0.20;0.20;;;;;;;36.12;20.79;101431.41;5021673;28;20049;-89
2021/06/02 14:31:48;;;;;;;0.25;0.13;;;;;;;36.25;19.70;101416.97;5022826;28;20040;-89
2021/06/02 14:34:16;;;;;;;0.20;0.20;;;;;;;36.34;20.77;101426.91;5029183;28;20034;-90
2021/06/02 14:36:44;;;;;;;0.30;0.30;;;;;;;36.38;17.62;101419.13;5027830;28;20118;-89
2021/06/02 14:39:13;;;;;;;0.08;0.08;;;;;;;36.59;18.76;101412.88;5029579;28;20026;-89
2021/06/02 14:41:48;;;;;;;0.00;0.00;;;;;;;36.68;18.26;101408.13;5011293;28;20416;-89
2021/06/02 14:44:15;;;;;;;16.90;0.40;;;;;;;36.67;19.61;101409.16;5029210;28;20044;-88
2021/06/02 14:46:43;;;;;;;0.47;0.35;;;;;;;36.81;19.57;101401.91;5028066;28;20373;-92
2021/06/02 14:49:09;;;;;;;0.03;0.03;;;;;;;36.73;20.23;101413.94;5028952;28;20072;-90
2021/06/02 14:51:36;;;;;;;0.00;0.00;;;;;;;36.80;20.95;101411.25;5016667;28;20026;-91
2021/06/02 14:56:39;;;;;;;0.10;0.10;;;;;;;36.87;18.93;101412.22;5045568;28;20041;-84
2021/06/02 14:59:05;;;;;;;0.47;0.35;;;;;;;37.03;17.92;101403.72;5048371;28;20033;-84
2021/06/02 15:01:31;;;;;;;0.13;0.13;;;;;;;37.12;18.31;101410.00;5048387;28;20017;-83
2021/06/02 15:03:59;;;;;;;0.22;0.20;;;;;;;37.10;18.55;101408.47;5047322;28;20412;-83
2021/06/02 15:06:26;;;;;;;0.00;0.00;;;;;;;37.28;17.59;101403.41;5044289;28;20461;-84
2021/06/02 15:08:55;;;;;;;0.03;0.03;;;;;;;37.31;19.50;101402.16;5033600;28;20423;-83